CFG37ML ESSA-EDDF
Flight info
| Callsign | CFG37ML |
|---|---|
| Flight time | 1h 42m |
| Altitude | 36000 |
| Route | NOSLI N850 ABAMA DCT BUMIL DCT HLZ DCT RIMET/N0403F310 T157 KOKEB/N0355F230 T157 KERAX KERAX5A |
| Aircraft | A320/M-SDE3FGHIRWY/LB1 |
Departure
| Time | 2026-04-16 22:03 |
|---|---|
| Airport | Stockholm-Arlanda Airport (ESSA) |
Arrival
| Time | 2026-04-16 23:45 |
|---|---|
| Airport | Frankfurt Main Airport (EDDF) |
| Time | Latitude | Longitude | Altitude | Speed | Heading |
|---|---|---|---|---|---|
| 2026-04-16 22:02 | 59.75512 | 17.98957 | 5514 ft | 259 kts | 342° |
| 2026-04-16 22:03 | 59.76971 | 17.96766 | 6313 ft | 275 kts | 308° |
| 2026-04-16 22:03 | 59.77651 | 17.93168 | 7135 ft | 286 kts | 279° |
| 2026-04-16 22:03 | 59.77746 | 17.89193 | 8012 ft | 290 kts | 270° |
| 2026-04-16 22:03 | 59.77678 | 17.85155 | 8893 ft | 295 kts | 269° |
| 2026-04-16 22:04 | 59.77637 | 17.81067 | 9762 ft | 297 kts | 271° |
| 2026-04-16 22:04 | 59.77648 | 17.76982 | 10577 ft | 302 kts | 266° |
| 2026-04-16 22:04 | 59.77125 | 17.72866 | 11311 ft | 310 kts | 244° |
| 2026-04-16 22:04 | 59.75826 | 17.69329 | 11583 ft | 329 kts | 218° |
| 2026-04-16 22:05 | 59.73797 | 17.67200 | 12085 ft | 334 kts | 191° |
| 2026-04-16 22:05 | 59.71505 | 17.66452 | 12833 ft | 335 kts | 185° |
| 2026-04-16 22:05 | 59.69212 | 17.65837 | 13582 ft | 338 kts | 185° |
| 2026-04-16 22:05 | 59.66871 | 17.65161 | 14316 ft | 343 kts | 189° |
| 2026-04-16 22:06 | 59.64529 | 17.63856 | 15037 ft | 347 kts | 194° |
| 2026-04-16 22:06 | 59.59872 | 17.60998 | 16428 ft | 354 kts | 195° |
| 2026-04-16 22:06 | 59.57513 | 17.59545 | 17093 ft | 357 kts | 195° |
| 2026-04-16 22:07 | 59.55138 | 17.58084 | 17741 ft | 359 kts | 195° |
| 2026-04-16 22:07 | 59.52739 | 17.56612 | 18378 ft | 363 kts | 195° |
| 2026-04-16 22:07 | 59.50353 | 17.55100 | 18987 ft | 366 kts | 196° |
| 2026-04-16 22:07 | 59.47932 | 17.53467 | 19580 ft | 370 kts | 197° |
| 2026-04-16 22:08 | 59.45494 | 17.51771 | 20161 ft | 373 kts | 197° |
| 2026-04-16 22:08 | 59.43039 | 17.50053 | 20728 ft | 376 kts | 197° |
| 2026-04-16 22:08 | 59.40558 | 17.48331 | 21285 ft | 380 kts | 197° |
| 2026-04-16 22:08 | 59.38054 | 17.46608 | 21830 ft | 383 kts | 196° |
| 2026-04-16 22:09 | 59.35528 | 17.44878 | 22361 ft | 386 kts | 196° |
| 2026-04-16 22:09 | 59.32974 | 17.43138 | 22888 ft | 390 kts | 196° |
| 2026-04-16 22:09 | 59.30405 | 17.41393 | 23405 ft | 393 kts | 196° |
| 2026-04-16 22:09 | 59.27807 | 17.39632 | 23901 ft | 396 kts | 196° |
| 2026-04-16 22:10 | 59.25157 | 17.37839 | 24402 ft | 399 kts | 195° |
| 2026-04-16 22:10 | 59.22523 | 17.36060 | 24882 ft | 402 kts | 195° |
| 2026-04-16 22:10 | 59.19873 | 17.34272 | 25350 ft | 404 kts | 195° |
| 2026-04-16 22:10 | 59.17208 | 17.32476 | 25799 ft | 407 kts | 195° |
| 2026-04-16 22:11 | 59.14524 | 17.30677 | 26234 ft | 409 kts | 195° |
| 2026-04-16 22:11 | 59.11828 | 17.28872 | 26654 ft | 411 kts | 195° |
| 2026-04-16 22:11 | 59.09129 | 17.26961 | 27060 ft | 415 kts | 200° |
| 2026-04-16 22:11 | 59.06564 | 17.24314 | 27448 ft | 421 kts | 210° |
| 2026-04-16 22:12 | 59.04218 | 17.20861 | 27828 ft | 426 kts | 217° |
| 2026-04-16 22:12 | 59.01942 | 17.17164 | 28206 ft | 428 kts | 217° |
| 2026-04-16 22:12 | 58.99648 | 17.13471 | 28578 ft | 429 kts | 217° |
| 2026-04-16 22:12 | 58.97341 | 17.09769 | 28930 ft | 431 kts | 217° |
| 2026-04-16 22:13 | 58.95808 | 17.07310 | 29160 ft | 433 kts | 217° |
| 2026-04-16 22:13 | 58.93485 | 17.03588 | 29502 ft | 435 kts | 217° |
| 2026-04-16 22:13 | 58.91149 | 16.99847 | 29833 ft | 436 kts | 217° |
| 2026-04-16 22:13 | 58.88805 | 16.96100 | 30149 ft | 438 kts | 217° |
| 2026-04-16 22:14 | 58.86451 | 16.92343 | 30454 ft | 440 kts | 217° |
| 2026-04-16 22:14 | 58.84087 | 16.88574 | 30744 ft | 442 kts | 217° |
| 2026-04-16 22:14 | 58.81710 | 16.84793 | 31014 ft | 444 kts | 217° |
| 2026-04-16 22:14 | 58.79321 | 16.81003 | 31282 ft | 446 kts | 217° |
| 2026-04-16 22:15 | 58.76921 | 16.77201 | 31548 ft | 447 kts | 217° |
| 2026-04-16 22:15 | 58.74510 | 16.73385 | 31797 ft | 449 kts | 217° |
| 2026-04-16 22:15 | 58.72097 | 16.69572 | 32133 ft | 448 kts | 217° |
| 2026-04-16 22:15 | 58.69685 | 16.65776 | 32494 ft | 448 kts | 217° |
| 2026-04-16 22:16 | 58.67276 | 16.61991 | 32827 ft | 447 kts | 218° |
| 2026-04-16 22:16 | 58.64869 | 16.58218 | 33169 ft | 446 kts | 218° |
| 2026-04-16 22:16 | 58.62463 | 16.54455 | 33494 ft | 446 kts | 218° |
| 2026-04-16 22:16 | 58.60061 | 16.50693 | 33823 ft | 446 kts | 218° |
| 2026-04-16 22:17 | 58.57663 | 16.46938 | 34155 ft | 445 kts | 218° |
| 2026-04-16 22:17 | 58.55268 | 16.43196 | 34479 ft | 444 kts | 218° |
| 2026-04-16 22:17 | 58.52870 | 16.39466 | 34767 ft | 444 kts | 218° |
| 2026-04-16 22:17 | 58.50467 | 16.35747 | 35035 ft | 445 kts | 218° |
| 2026-04-16 22:18 | 58.48058 | 16.32029 | 35305 ft | 445 kts | 218° |
| 2026-04-16 22:18 | 58.45649 | 16.28317 | 35541 ft | 445 kts | 219° |
| 2026-04-16 22:18 | 58.43240 | 16.24602 | 35791 ft | 445 kts | 219° |
| 2026-04-16 22:18 | 58.40830 | 16.20888 | 36025 ft | 446 kts | 219° |
| 2026-04-16 22:19 | 58.38419 | 16.17171 | 36203 ft | 447 kts | 219° |
| 2026-04-16 22:19 | 58.36012 | 16.13469 | 36249 ft | 443 kts | 219° |
| 2026-04-16 22:19 | 58.31230 | 16.06156 | 36248 ft | 440 kts | 219° |
| 2026-04-16 22:20 | 58.26457 | 15.98880 | 36246 ft | 439 kts | 219° |
| 2026-04-16 22:20 | 58.21686 | 15.91625 | 36248 ft | 439 kts | 219° |
| 2026-04-16 22:21 | 58.16916 | 15.84383 | 36249 ft | 439 kts | 219° |
| 2026-04-16 22:21 | 58.12136 | 15.77158 | 36251 ft | 440 kts | 219° |
| 2026-04-16 22:22 | 58.07346 | 15.69965 | 36253 ft | 440 kts | 219° |
| 2026-04-16 22:22 | 58.02554 | 15.62784 | 36257 ft | 440 kts | 219° |
| 2026-04-16 22:23 | 57.97640 | 15.55941 | 36256 ft | 440 kts | 210° |
| 2026-04-16 22:23 | 57.92246 | 15.50469 | 36254 ft | 441 kts | 208° |
| 2026-04-16 22:24 | 57.86838 | 15.45025 | 36256 ft | 441 kts | 208° |
| 2026-04-16 22:24 | 57.81388 | 15.39548 | 36258 ft | 441 kts | 209° |
| 2026-04-16 22:25 | 57.75972 | 15.34128 | 36259 ft | 441 kts | 208° |
| 2026-04-16 22:25 | 57.70553 | 15.28723 | 36261 ft | 441 kts | 209° |
| 2026-04-16 22:26 | 57.65128 | 15.23328 | 36260 ft | 442 kts | 208° |
| 2026-04-16 22:26 | 57.59700 | 15.17967 | 36261 ft | 442 kts | 208° |
| 2026-04-16 22:27 | 57.54271 | 15.12601 | 36257 ft | 442 kts | 209° |
| 2026-04-16 22:27 | 57.48842 | 15.07246 | 36255 ft | 441 kts | 209° |
| 2026-04-16 22:28 | 57.43410 | 15.01929 | 36252 ft | 442 kts | 209° |
| 2026-04-16 22:28 | 57.37975 | 14.96622 | 36252 ft | 441 kts | 209° |
| 2026-04-16 22:29 | 57.32541 | 14.91341 | 36248 ft | 441 kts | 209° |
| 2026-04-16 22:29 | 57.27106 | 14.86063 | 36244 ft | 441 kts | 209° |
| 2026-04-16 22:30 | 57.21671 | 14.80805 | 36252 ft | 441 kts | 209° |
| 2026-04-16 22:30 | 57.16235 | 14.75559 | 36254 ft | 441 kts | 209° |
| 2026-04-16 22:31 | 57.10798 | 14.70325 | 36255 ft | 441 kts | 209° |
| 2026-04-16 22:31 | 57.05361 | 14.65108 | 36253 ft | 441 kts | 209° |
| 2026-04-16 22:32 | 56.99919 | 14.59920 | 36253 ft | 441 kts | 209° |
| 2026-04-16 22:32 | 56.94479 | 14.54731 | 36255 ft | 441 kts | 209° |
| 2026-04-16 22:33 | 56.89034 | 14.49575 | 36255 ft | 440 kts | 209° |
| 2026-04-16 22:33 | 56.83592 | 14.44435 | 36253 ft | 440 kts | 209° |
| 2026-04-16 22:34 | 56.78150 | 14.39299 | 36251 ft | 440 kts | 209° |
| 2026-04-16 22:34 | 56.72709 | 14.34194 | 36245 ft | 440 kts | 209° |
| 2026-04-16 22:35 | 56.67273 | 14.29103 | 36243 ft | 439 kts | 209° |
| 2026-04-16 22:35 | 56.61834 | 14.24016 | 36240 ft | 440 kts | 209° |
| 2026-04-16 22:36 | 56.56387 | 14.18970 | 36240 ft | 440 kts | 209° |
| 2026-04-16 22:36 | 56.50938 | 14.13929 | 36247 ft | 440 kts | 209° |
| 2026-04-16 22:37 | 56.45490 | 14.08884 | 36253 ft | 440 kts | 209° |
| 2026-04-16 22:37 | 56.40033 | 14.03853 | 36258 ft | 440 kts | 209° |
| 2026-04-16 22:38 | 56.34575 | 13.98854 | 36263 ft | 440 kts | 209° |
| 2026-04-16 22:38 | 56.29113 | 13.93864 | 36269 ft | 440 kts | 209° |
| 2026-04-16 22:39 | 56.23649 | 13.88873 | 36277 ft | 440 kts | 209° |
| 2026-04-16 22:39 | 56.18187 | 13.83902 | 36281 ft | 440 kts | 209° |
| 2026-04-16 22:40 | 56.12726 | 13.78949 | 36281 ft | 440 kts | 209° |
| 2026-04-16 22:40 | 56.07258 | 13.74015 | 36282 ft | 440 kts | 208° |
| 2026-04-16 22:41 | 56.01791 | 13.69095 | 36283 ft | 440 kts | 208° |
| 2026-04-16 22:41 | 55.96319 | 13.64192 | 36282 ft | 440 kts | 208° |
| 2026-04-16 22:42 | 55.90844 | 13.59290 | 36282 ft | 440 kts | 209° |
| 2026-04-16 22:42 | 55.85361 | 13.54392 | 36281 ft | 441 kts | 209° |
| 2026-04-16 22:43 | 55.79880 | 13.49520 | 36283 ft | 441 kts | 208° |
| 2026-04-16 22:43 | 55.74396 | 13.44667 | 36279 ft | 440 kts | 209° |
| 2026-04-16 22:44 | 55.68914 | 13.39825 | 36274 ft | 440 kts | 209° |
| 2026-04-16 22:44 | 55.63436 | 13.34997 | 36268 ft | 440 kts | 209° |
| 2026-04-16 22:45 | 55.57961 | 13.30183 | 36262 ft | 439 kts | 209° |
| 2026-04-16 22:45 | 55.52484 | 13.25389 | 36258 ft | 439 kts | 209° |
| 2026-04-16 22:46 | 55.47007 | 13.20616 | 36255 ft | 439 kts | 209° |
| 2026-04-16 22:46 | 55.41525 | 13.15842 | 36255 ft | 439 kts | 209° |
| 2026-04-16 22:47 | 55.36039 | 13.11089 | 36257 ft | 439 kts | 209° |
| 2026-04-16 22:47 | 55.30555 | 13.06350 | 36259 ft | 439 kts | 209° |
| 2026-04-16 22:48 | 55.25065 | 13.01626 | 36260 ft | 439 kts | 209° |
| 2026-04-16 22:48 | 55.19579 | 12.96925 | 36261 ft | 439 kts | 209° |
| 2026-04-16 22:49 | 55.14090 | 12.92220 | 36261 ft | 439 kts | 209° |
| 2026-04-16 22:49 | 55.08604 | 12.87534 | 36262 ft | 439 kts | 209° |
| 2026-04-16 22:50 | 55.04002 | 12.83618 | 36262 ft | 439 kts | 209° |
| 2026-04-16 22:50 | 54.98515 | 12.78958 | 36262 ft | 439 kts | 209° |
| 2026-04-16 22:51 | 54.93019 | 12.74307 | 36263 ft | 439 kts | 209° |
| 2026-04-16 22:51 | 54.87520 | 12.69668 | 36265 ft | 439 kts | 209° |
| 2026-04-16 22:52 | 54.82022 | 12.65037 | 36267 ft | 440 kts | 209° |
| 2026-04-16 22:52 | 54.76517 | 12.60414 | 36272 ft | 440 kts | 209° |
| 2026-04-16 22:53 | 54.71007 | 12.55821 | 36275 ft | 439 kts | 209° |
| 2026-04-16 22:53 | 54.65498 | 12.51230 | 36273 ft | 439 kts | 209° |
| 2026-04-16 22:54 | 54.59994 | 12.46651 | 36269 ft | 439 kts | 209° |
| 2026-04-16 22:54 | 54.54487 | 12.42085 | 36269 ft | 439 kts | 209° |
| 2026-04-16 22:55 | 54.48982 | 12.37544 | 36266 ft | 439 kts | 209° |
| 2026-04-16 22:55 | 54.43480 | 12.33013 | 36264 ft | 438 kts | 209° |
| 2026-04-16 22:56 | 54.37980 | 12.28492 | 36261 ft | 438 kts | 209° |
| 2026-04-16 22:56 | 54.32473 | 12.23987 | 36258 ft | 438 kts | 209° |
| 2026-04-16 22:57 | 54.26966 | 12.19497 | 36259 ft | 438 kts | 209° |
| 2026-04-16 22:57 | 54.23282 | 12.16502 | 36260 ft | 438 kts | 209° |
| 2026-04-16 22:58 | 54.18153 | 12.12305 | 36263 ft | 437 kts | 209° |
| 2026-04-16 22:58 | 54.12656 | 12.07866 | 36253 ft | 437 kts | 209° |
| 2026-04-16 22:59 | 54.07156 | 12.03433 | 36247 ft | 438 kts | 209° |
| 2026-04-16 22:59 | 54.01646 | 11.99000 | 36251 ft | 438 kts | 209° |
| 2026-04-16 23:00 | 53.96133 | 11.94583 | 36249 ft | 438 kts | 209° |
| 2026-04-16 23:00 | 53.90621 | 11.90171 | 36249 ft | 438 kts | 209° |
| 2026-04-16 23:01 | 53.85110 | 11.85772 | 36245 ft | 438 kts | 209° |
| 2026-04-16 23:01 | 53.79598 | 11.81380 | 36247 ft | 438 kts | 209° |
| 2026-04-16 23:02 | 53.74096 | 11.77016 | 36265 ft | 436 kts | 209° |
| 2026-04-16 23:02 | 53.68606 | 11.72678 | 36271 ft | 435 kts | 209° |
| 2026-04-16 23:03 | 53.63125 | 11.68355 | 36270 ft | 435 kts | 210° |
| 2026-04-16 23:03 | 53.57646 | 11.64040 | 36268 ft | 434 kts | 209° |
| 2026-04-16 23:04 | 53.52169 | 11.59758 | 36265 ft | 434 kts | 210° |
| 2026-04-16 23:04 | 53.46701 | 11.55484 | 36262 ft | 433 kts | 210° |
| 2026-04-16 23:05 | 53.41235 | 11.51217 | 36260 ft | 433 kts | 210° |
| 2026-04-16 23:05 | 53.35776 | 11.46964 | 36257 ft | 433 kts | 210° |
| 2026-04-16 23:06 | 53.30315 | 11.42726 | 36256 ft | 433 kts | 210° |
| 2026-04-16 23:06 | 53.24840 | 11.38499 | 36256 ft | 433 kts | 210° |
| 2026-04-16 23:07 | 53.19369 | 11.34282 | 36252 ft | 433 kts | 210° |
| 2026-04-16 23:07 | 53.13894 | 11.30073 | 36251 ft | 434 kts | 210° |
| 2026-04-16 23:08 | 53.08360 | 11.26012 | 36252 ft | 436 kts | 207° |
| 2026-04-16 23:08 | 53.02710 | 11.22334 | 36252 ft | 437 kts | 206° |
| 2026-04-16 23:09 | 52.97031 | 11.18753 | 36249 ft | 437 kts | 206° |
| 2026-04-16 23:09 | 52.91371 | 11.15103 | 36250 ft | 436 kts | 207° |
| 2026-04-16 23:10 | 52.85732 | 11.11388 | 36251 ft | 436 kts | 207° |
| 2026-04-16 23:10 | 52.80090 | 11.07679 | 36252 ft | 437 kts | 207° |
| 2026-04-16 23:11 | 52.74434 | 11.04008 | 36253 ft | 437 kts | 207° |
| 2026-04-16 23:11 | 52.68775 | 11.00351 | 36253 ft | 437 kts | 207° |
| 2026-04-16 23:12 | 52.63102 | 10.96694 | 36245 ft | 439 kts | 207° |
| 2026-04-16 23:12 | 52.57410 | 10.93027 | 36251 ft | 440 kts | 207° |
| 2026-04-16 23:13 | 52.51710 | 10.89362 | 36248 ft | 440 kts | 207° |
| 2026-04-16 23:13 | 52.46005 | 10.85692 | 36256 ft | 441 kts | 207° |
| 2026-04-16 23:14 | 52.40291 | 10.82039 | 36261 ft | 441 kts | 207° |
| 2026-04-16 23:14 | 52.34562 | 10.78418 | 36260 ft | 442 kts | 206° |
| 2026-04-16 23:15 | 52.25819 | 10.73437 | 36265 ft | 444 kts | 205° |
| 2026-04-16 23:16 | 52.19966 | 10.70189 | 36268 ft | 444 kts | 205° |
| 2026-04-16 23:16 | 52.14131 | 10.66891 | 36270 ft | 444 kts | 205° |
| 2026-04-16 23:17 | 52.08360 | 10.63370 | 36266 ft | 441 kts | 209° |
| 2026-04-16 23:17 | 52.02718 | 10.59473 | 36261 ft | 441 kts | 210° |
| 2026-04-16 23:18 | 51.97085 | 10.55525 | 36259 ft | 441 kts | 210° |
| 2026-04-16 23:18 | 51.91417 | 10.51670 | 36255 ft | 442 kts | 209° |
| 2026-04-16 23:19 | 51.85728 | 10.47883 | 36253 ft | 442 kts | 209° |
| 2026-04-16 23:19 | 51.80026 | 10.44092 | 36077 ft | 446 kts | 209° |
| 2026-04-16 23:19 | 51.77157 | 10.42177 | 35826 ft | 447 kts | 209° |
| 2026-04-16 23:20 | 51.74286 | 10.40256 | 35576 ft | 447 kts | 210° |
| 2026-04-16 23:20 | 51.71372 | 10.38306 | 35321 ft | 447 kts | 210° |
| 2026-04-16 23:20 | 51.68534 | 10.36411 | 35077 ft | 448 kts | 210° |
| 2026-04-16 23:20 | 51.65653 | 10.34494 | 34827 ft | 448 kts | 210° |
| 2026-04-16 23:21 | 51.62769 | 10.32582 | 34577 ft | 449 kts | 210° |
| 2026-04-16 23:21 | 51.59879 | 10.30673 | 34327 ft | 449 kts | 210° |
| 2026-04-16 23:21 | 51.56991 | 10.28766 | 34075 ft | 449 kts | 210° |
| 2026-04-16 23:21 | 51.54099 | 10.26864 | 33825 ft | 446 kts | 210° |
| 2026-04-16 23:22 | 51.51247 | 10.24997 | 33577 ft | 445 kts | 210° |
| 2026-04-16 23:22 | 51.48370 | 10.23098 | 33325 ft | 449 kts | 210° |
| 2026-04-16 23:22 | 51.45478 | 10.21185 | 33075 ft | 450 kts | 210° |
| 2026-04-16 23:22 | 51.42577 | 10.19269 | 32824 ft | 452 kts | 210° |
| 2026-04-16 23:23 | 51.39665 | 10.17352 | 32504 ft | 453 kts | 210° |
| 2026-04-16 23:23 | 51.36744 | 10.15434 | 31840 ft | 453 kts | 210° |
| 2026-04-16 23:23 | 51.33825 | 10.13528 | 31180 ft | 453 kts | 210° |
| 2026-04-16 23:23 | 51.30904 | 10.11624 | 30490 ft | 454 kts | 210° |
| 2026-04-16 23:24 | 51.27981 | 10.09719 | 29794 ft | 454 kts | 210° |
| 2026-04-16 23:24 | 51.25056 | 10.07814 | 29079 ft | 455 kts | 209° |
| 2026-04-16 23:24 | 51.22123 | 10.05907 | 28323 ft | 456 kts | 209° |
| 2026-04-16 23:24 | 51.19186 | 10.03999 | 27581 ft | 457 kts | 208° |
| 2026-04-16 23:25 | 51.16235 | 10.02084 | 26838 ft | 458 kts | 208° |
| 2026-04-16 23:25 | 51.13299 | 10.00185 | 26298 ft | 450 kts | 208° |
| 2026-04-16 23:25 | 51.10432 | 9.98337 | 25762 ft | 441 kts | 208° |
| 2026-04-16 23:25 | 51.07611 | 9.96518 | 25151 ft | 434 kts | 207° |
| 2026-04-16 23:26 | 51.04800 | 9.94701 | 24319 ft | 427 kts | 207° |
| 2026-04-16 23:26 | 51.02066 | 9.92930 | 23481 ft | 422 kts | 207° |
| 2026-04-16 23:26 | 50.99349 | 9.91169 | 22707 ft | 421 kts | 207° |
| 2026-04-16 23:26 | 50.96646 | 9.89420 | 22101 ft | 418 kts | 206° |
| 2026-04-16 23:27 | 50.93965 | 9.87695 | 21532 ft | 414 kts | 206° |
| 2026-04-16 23:27 | 50.91306 | 9.85996 | 20967 ft | 411 kts | 206° |
| 2026-04-16 23:27 | 50.88669 | 9.84315 | 20438 ft | 407 kts | 206° |
| 2026-04-16 23:27 | 50.86051 | 9.82647 | 19914 ft | 404 kts | 206° |
| 2026-04-16 23:28 | 50.83456 | 9.80988 | 19401 ft | 400 kts | 206° |
| 2026-04-16 23:28 | 50.80886 | 9.79343 | 18883 ft | 397 kts | 206° |
| 2026-04-16 23:28 | 50.78334 | 9.77714 | 18359 ft | 394 kts | 206° |
| 2026-04-16 23:28 | 50.75802 | 9.76103 | 17829 ft | 391 kts | 205° |
| 2026-04-16 23:29 | 50.73287 | 9.74504 | 17288 ft | 388 kts | 205° |
| 2026-04-16 23:29 | 50.71634 | 9.73453 | 16936 ft | 386 kts | 205° |
| 2026-04-16 23:29 | 50.69149 | 9.71875 | 16391 ft | 383 kts | 205° |
| 2026-04-16 23:29 | 50.66684 | 9.70311 | 15834 ft | 381 kts | 205° |
| 2026-04-16 23:30 | 50.64232 | 9.68758 | 15272 ft | 378 kts | 205° |
| 2026-04-16 23:30 | 50.61798 | 9.67220 | 14710 ft | 376 kts | 205° |
| 2026-04-16 23:30 | 50.59394 | 9.65701 | 14318 ft | 368 kts | 204° |
| 2026-04-16 23:30 | 50.57008 | 9.64194 | 13649 ft | 370 kts | 204° |
| 2026-04-16 23:31 | 50.54652 | 9.62711 | 13299 ft | 360 kts | 204° |
| 2026-04-16 23:31 | 50.52359 | 9.61271 | 12521 ft | 351 kts | 204° |
| 2026-04-16 23:31 | 50.50095 | 9.59846 | 11885 ft | 350 kts | 204° |
| 2026-04-16 23:31 | 50.47940 | 9.58136 | 11135 ft | 344 kts | 217° |
| 2026-04-16 23:32 | 50.46204 | 9.55620 | 10708 ft | 340 kts | 232° |
| 2026-04-16 23:32 | 50.44734 | 9.52706 | 10434 ft | 338 kts | 233° |
| 2026-04-16 23:32 | 50.43322 | 9.49929 | 10203 ft | 312 kts | 232° |
| 2026-04-16 23:32 | 50.42019 | 9.47384 | 9994 ft | 289 kts | 232° |
| 2026-04-16 23:33 | 50.40785 | 9.44974 | 9624 ft | 281 kts | 232° |
| 2026-04-16 23:33 | 50.39562 | 9.42577 | 9366 ft | 281 kts | 232° |
| 2026-04-16 23:33 | 50.38336 | 9.40176 | 9116 ft | 282 kts | 232° |
| 2026-04-16 23:33 | 50.37115 | 9.37785 | 8861 ft | 280 kts | 232° |
| 2026-04-16 23:34 | 50.35900 | 9.35408 | 8609 ft | 279 kts | 232° |
| 2026-04-16 23:34 | 50.34687 | 9.33034 | 8362 ft | 279 kts | 232° |
| 2026-04-16 23:34 | 50.33494 | 9.30704 | 8114 ft | 277 kts | 232° |
| 2026-04-16 23:34 | 50.32288 | 9.28355 | 7863 ft | 276 kts | 232° |
| 2026-04-16 23:35 | 50.31082 | 9.26014 | 7620 ft | 276 kts | 232° |
| 2026-04-16 23:35 | 50.29882 | 9.23681 | 7370 ft | 274 kts | 232° |
| 2026-04-16 23:35 | 50.28689 | 9.21364 | 7123 ft | 273 kts | 232° |
| 2026-04-16 23:35 | 50.27690 | 9.19431 | 6922 ft | 272 kts | 232° |
| 2026-04-16 23:36 | 50.26504 | 9.17126 | 6673 ft | 271 kts | 232° |
| 2026-04-16 23:36 | 50.25323 | 9.14829 | 6430 ft | 271 kts | 232° |
| 2026-04-16 23:36 | 50.24143 | 9.12541 | 6187 ft | 270 kts | 232° |
| 2026-04-16 23:36 | 50.22965 | 9.10263 | 5944 ft | 269 kts | 232° |
| 2026-04-16 23:37 | 50.21792 | 9.07995 | 5704 ft | 268 kts | 232° |
| 2026-04-16 23:37 | 50.20625 | 9.05736 | 5465 ft | 267 kts | 232° |
| 2026-04-16 23:37 | 50.19436 | 9.03511 | 5226 ft | 267 kts | 226° |
| 2026-04-16 23:37 | 50.17970 | 9.01739 | 4985 ft | 268 kts | 210° |
| 2026-04-16 23:38 | 50.16242 | 9.00662 | 4780 ft | 269 kts | 194° |
| 2026-04-16 23:38 | 50.14409 | 9.00105 | 4575 ft | 269 kts | 192° |
| 2026-04-16 23:38 | 50.12576 | 8.99561 | 4368 ft | 268 kts | 192° |
| 2026-04-16 23:38 | 50.10769 | 8.98894 | 4160 ft | 265 kts | 202° |
| 2026-04-16 23:39 | 50.09185 | 8.97465 | 3956 ft | 263 kts | 221° |
| 2026-04-16 23:39 | 50.08002 | 8.95331 | 3768 ft | 257 kts | 240° |
| 2026-04-16 23:39 | 50.07318 | 8.92845 | 3558 ft | 245 kts | 253° |
| 2026-04-16 23:39 | 50.06794 | 8.90377 | 3376 ft | 235 kts | 252° |
| 2026-04-16 23:40 | 50.06299 | 8.87995 | 3195 ft | 227 kts | 257° |
| 2026-04-16 23:40 | 50.06170 | 8.85601 | 3027 ft | 218 kts | 276° |
| 2026-04-16 23:40 | 50.06365 | 8.83302 | 2869 ft | 211 kts | 278° |
| 2026-04-16 23:40 | 50.06549 | 8.81082 | 2719 ft | 203 kts | 277° |
| 2026-04-16 23:41 | 50.06724 | 8.78945 | 2592 ft | 195 kts | 277° |
| 2026-04-16 23:41 | 50.06889 | 8.76914 | 2435 ft | 182 kts | 277° |
| 2026-04-16 23:41 | 50.07041 | 8.75064 | 2297 ft | 162 kts | 277° |
| 2026-04-16 23:41 | 50.07179 | 8.73400 | 2167 ft | 151 kts | 276° |
| 2026-04-16 23:42 | 50.07310 | 8.71809 | 2070 ft | 146 kts | 276° |
| 2026-04-16 23:42 | 50.07260 | 8.70260 | 1963 ft | 143 kts | 253° |
| 2026-04-16 23:42 | 50.06931 | 8.68791 | 1799 ft | 145 kts | 250° |
| 2026-04-16 23:42 | 50.06589 | 8.67297 | 1625 ft | 148 kts | 250° |
| 2026-04-16 23:43 | 50.06225 | 8.65781 | 1419 ft | 151 kts | 250° |
| 2026-04-16 23:43 | 50.05860 | 8.64250 | 1206 ft | 151 kts | 250° |
| 2026-04-16 23:43 | 50.05496 | 8.62735 | 1008 ft | 149 kts | 250° |
| 2026-04-16 23:43 | 50.05127 | 8.61214 | 761 ft | 148 kts | 250° |
| 2026-04-16 23:44 | 50.04774 | 8.59750 | 570 ft | 142 kts | 250° |
| 2026-04-16 23:44 | 50.04431 | 8.58337 | 384 ft | 136 kts | 250° |
| 2026-04-16 23:44 | 50.04144 | 8.57131 | 366 ft | 95 kts | 250° |
| 2026-04-16 23:44 | 50.03955 | 8.56354 | 356 ft | 62 kts | 250° |
| 2026-04-16 23:45 | 50.03885 | 8.55910 | 351 ft | 30 kts | 272° |
| 2026-04-16 23:45 | 50.03903 | 8.55696 | 354 ft | 12 kts | 279° |
| 2026-04-16 23:45 | 50.03905 | 8.55675 | 348 ft | 0 kts | 279° |
| 2026-04-16 23:46 | 50.03913 | 8.55640 | 350 ft | 8 kts | 304° |
| 2026-04-16 23:46 | 50.03981 | 8.55672 | 349 ft | 12 kts | 58° |
| 2026-04-16 23:47 | 50.04010 | 8.55787 | 357 ft | 10 kts | 69° |
| 2026-04-16 23:47 | 50.04033 | 8.55884 | 358 ft | 9 kts | 71° |
| 2026-04-16 23:47 | 50.04053 | 8.55970 | 355 ft | 10 kts | 70° |
| 2026-04-16 23:47 | 50.04086 | 8.56106 | 357 ft | 17 kts | 69° |
| 2026-04-16 23:48 | 50.04132 | 8.56302 | 354 ft | 21 kts | 69° |
| 2026-04-16 23:48 | 50.04184 | 8.56518 | 361 ft | 20 kts | 69° |
| 2026-04-16 23:48 | 50.04227 | 8.56703 | 362 ft | 15 kts | 70° |
| 2026-04-16 23:48 | 50.04297 | 8.56812 | 361 ft | 16 kts | 12° |
| 2026-04-16 23:49 | 50.04412 | 8.56846 | 364 ft | 18 kts | 7° |
| 2026-04-16 23:49 | 50.04546 | 8.56889 | 359 ft | 21 kts | 14° |
| 2026-04-16 23:49 | 50.04675 | 8.56949 | 359 ft | 18 kts | 24° |
| 2026-04-16 23:49 | 50.04792 | 8.57034 | 359 ft | 19 kts | 24° |
| 2026-04-16 23:50 | 50.04872 | 8.57082 | 363 ft | 8 kts | 2° |
| 2026-04-16 23:50 | 50.04912 | 8.57064 | 356 ft | 0 kts | 339° |
| 2026-04-16 23:50 | 50.04916 | 8.57062 | 356 ft | 1 kts | 341° |
| 2026-04-16 23:50 | 50.04918 | 8.57062 | 356 ft | 0 kts | 353° |
| 2026-04-16 23:51 | 50.04918 | 8.57063 | 356 ft | 0 kts | 358° |
| 2026-04-16 23:51 | 50.04921 | 8.57070 | 356 ft | 1 kts | 45° |
| 2026-04-16 23:51 | 50.04921 | 8.57075 | 356 ft | 0 kts | 73° |
| 2026-04-16 23:51 | 50.04919 | 8.57079 | 356 ft | 1 kts | 102° |
| 2026-04-16 23:52 | 50.04918 | 8.57084 | 356 ft | 0 kts | 100° |
| 2026-04-16 23:52 | 50.04918 | 8.57087 | 356 ft | 0 kts | 100° |
| 2026-04-16 23:52 | 50.04918 | 8.57088 | 356 ft | 0 kts | 99° |